createdAt,value
2023-03-26T00:01:29.248Z,15.35
2023-03-26T00:03:56.618Z,15.39
2023-03-26T00:06:26.061Z,15.29
2023-03-26T00:08:53.941Z,15.30
2023-03-26T00:11:23.051Z,15.29
2023-03-26T00:13:52.178Z,15.22
2023-03-26T00:16:20.978Z,15.18
2023-03-26T00:18:48.151Z,15.35
2023-03-26T00:21:18.720Z,15.46
2023-03-26T00:23:48.501Z,15.38
2023-03-26T00:26:16.135Z,15.30
2023-03-26T00:28:43.672Z,15.32
2023-03-26T00:31:22.038Z,15.23
2023-03-26T00:33:52.489Z,15.16
2023-03-26T00:36:20.140Z,15.20
2023-03-26T00:38:47.947Z,15.26
2023-03-26T00:41:19.039Z,15.26
2023-03-26T00:43:46.961Z,15.13
2023-03-26T00:46:14.799Z,15.09
2023-03-26T00:48:45.770Z,15.05
2023-03-26T00:51:15.514Z,15.01
2023-03-26T00:53:44.762Z,15.01
2023-03-26T00:56:17.406Z,14.96
2023-03-26T00:58:44.885Z,15.02
2023-03-26T01:01:16.309Z,15.08
2023-03-26T01:06:33.945Z,15.01
2023-03-26T01:09:11.236Z,14.95
2023-03-26T01:11:38.583Z,14.85
2023-03-26T01:14:10.876Z,14.93
2023-03-26T01:16:41.890Z,14.95
2023-03-26T01:19:18.926Z,14.99
2023-03-26T01:21:47.344Z,15.11
2023-03-26T01:24:15.862Z,15.05
2023-03-26T01:26:58.991Z,15.15
2023-03-26T01:29:35.969Z,14.89
2023-03-26T01:32:22.196Z,15.06
2023-03-26T01:35:08.299Z,14.82
2023-03-26T01:37:50.415Z,14.70
2023-03-26T01:40:28.674Z,14.81
2023-03-26T01:43:06.776Z,14.95
2023-03-26T01:45:38.216Z,14.77
2023-03-26T01:48:06.861Z,14.92
2023-03-26T01:50:34.198Z,14.93
2023-03-26T01:53:01.739Z,14.89
2023-03-26T01:55:42.068Z,14.81
2023-03-26T01:58:19.552Z,14.85
2023-03-26T02:00:54.962Z,14.64
2023-03-26T02:03:30.225Z,14.51
2023-03-26T02:06:06.240Z,14.42
2023-03-26T02:08:38.739Z,14.47
2023-03-26T02:11:16.639Z,14.42
2023-03-26T02:13:46.515Z,14.13
2023-03-26T02:16:16.989Z,14.13
2023-03-26T02:18:45.891Z,14.02
2023-03-26T02:21:16.868Z,14.03
2023-03-26T02:23:44.407Z,14.00
2023-03-26T02:26:15.740Z,13.75
2023-03-26T02:29:16.612Z,13.91
2023-03-26T02:31:44.921Z,13.99
2023-03-26T02:34:12.698Z,14.06
2023-03-26T02:36:47.145Z,13.97
2023-03-26T02:39:14.405Z,13.90
2023-03-26T02:41:46.630Z,14.00
2023-03-26T02:44:13.785Z,13.86
2023-03-26T02:46:59.258Z,13.89
2023-03-26T02:49:41.305Z,13.99
2023-03-26T02:52:12.894Z,14.10
2023-03-26T02:54:40.993Z,14.06
2023-03-26T02:57:20.973Z,14.19
2023-03-26T03:00:08.170Z,13.87
2023-03-26T03:02:38.677Z,14.03
2023-03-26T03:05:26.764Z,14.13
2023-03-26T03:08:19.335Z,14.12
2023-03-26T03:11:11.414Z,14.17
2023-03-26T03:13:45.477Z,14.20
2023-03-26T03:16:17.885Z,14.23
2023-03-26T03:18:44.952Z,13.99
2023-03-26T03:21:13.052Z,14.06
2023-03-26T03:23:39.955Z,13.89
2023-03-26T03:26:15.060Z,13.86
2023-03-26T03:28:47.107Z,13.78
2023-03-26T03:31:18.162Z,13.86
2023-03-26T03:33:45.619Z,13.76
2023-03-26T03:36:20.829Z,13.87
2023-03-26T03:38:57.206Z,13.76
2023-03-26T03:41:27.272Z,13.89
2023-03-26T03:43:55.776Z,13.80
2023-03-26T03:46:28.100Z,13.79
2023-03-26T03:48:57.079Z,13.49
2023-03-26T03:51:34.223Z,13.45
2023-03-26T03:54:31.501Z,13.54
2023-03-26T03:57:22.783Z,13.25
2023-03-26T03:59:59.207Z,13.25
2023-03-26T04:02:40.491Z,13.32
2023-03-26T04:05:10.459Z,13.38
2023-03-26T04:07:44.209Z,13.45
2023-03-26T04:10:26.934Z,13.42
2023-03-26T04:13:31.987Z,13.48
2023-03-26T04:16:35.128Z,13.31
2023-03-26T04:19:08.917Z,13.42
2023-03-26T04:21:46.116Z,13.49
2023-03-26T04:24:15.062Z,13.54
2023-03-26T04:27:16.150Z,13.51
2023-03-26T04:29:49.203Z,13.37
2023-03-26T04:32:25.385Z,13.37
2023-03-26T04:34:53.927Z,13.25
2023-03-26T04:37:28.749Z,13.48
2023-03-26T04:40:11.704Z,13.56
2023-03-26T04:42:48.714Z,13.63
2023-03-26T04:45:30.471Z,13.62
2023-03-26T04:47:59.790Z,13.46
2023-03-26T04:50:27.230Z,13.61
2023-03-26T04:52:57.292Z,13.54
2023-03-26T04:56:03.813Z,13.62
2023-03-26T04:58:51.175Z,13.62
2023-03-26T05:01:18.857Z,13.62
2023-03-26T05:03:48.420Z,13.55
2023-03-26T05:06:17.750Z,13.39
2023-03-26T05:08:45.572Z,13.28
2023-03-26T05:11:22.667Z,13.12
2023-03-26T05:13:50.581Z,13.27
2023-03-26T05:16:18.205Z,13.25
2023-03-26T05:18:52.010Z,13.21
2023-03-26T05:21:19.782Z,13.39
2023-03-26T05:23:47.068Z,13.51
2023-03-26T05:26:21.654Z,13.59
2023-03-26T05:28:49.206Z,13.54
2023-03-26T05:31:26.763Z,13.62
2023-03-26T05:34:02.639Z,13.66
2023-03-26T05:36:34.955Z,13.65
2023-03-26T05:39:26.715Z,13.82
2023-03-26T05:41:53.812Z,13.68
2023-03-26T05:44:46.502Z,13.72
2023-03-26T05:47:21.855Z,13.62
2023-03-26T05:49:50.179Z,13.69
2023-03-26T05:52:17.300Z,13.75
2023-03-26T05:55:05.407Z,13.70
2023-03-26T05:57:56.431Z,13.76
2023-03-26T06:00:42.559Z,13.80
2023-03-26T06:03:12.199Z,13.86
2023-03-26T06:05:59.828Z,13.93
2023-03-26T06:08:40.261Z,13.89
2023-03-26T06:11:07.511Z,14.03
2023-03-26T06:13:36.923Z,14.05
2023-03-26T06:16:05.008Z,14.17
2023-03-26T06:18:43.813Z,14.24
2023-03-26T06:21:33.563Z,14.20
2023-03-26T06:24:13.938Z,14.24
2023-03-26T06:26:59.703Z,14.23
2023-03-26T06:29:29.513Z,14.31
2023-03-26T06:32:16.217Z,14.30
2023-03-26T06:35:07.932Z,14.27
2023-03-26T06:37:38.048Z,14.37
2023-03-26T06:40:07.567Z,14.56
2023-03-26T06:43:08.021Z,14.65
2023-03-26T06:45:55.258Z,14.78
2023-03-26T06:48:38.477Z,14.84
2023-03-26T06:51:28.560Z,14.82
2023-03-26T06:54:10.180Z,14.89
2023-03-26T06:56:44.385Z,14.99
2023-03-26T06:59:29.972Z,14.88
2023-03-26T07:02:15.166Z,14.92
2023-03-26T07:05:00.785Z,14.64
2023-03-26T07:07:49.451Z,14.70
2023-03-26T07:10:37.011Z,14.72
2023-03-26T07:13:30.007Z,14.78
2023-03-26T07:16:15.256Z,14.89
2023-03-26T07:19:14.359Z,14.88
2023-03-26T07:21:43.561Z,14.77
2023-03-26T07:24:25.240Z,14.64
2023-03-26T07:27:31.398Z,14.61
2023-03-26T07:30:04.584Z,14.71
2023-03-26T07:32:58.714Z,14.78
2023-03-26T07:35:46.390Z,14.79
2023-03-26T07:38:43.297Z,14.84
2023-03-26T07:41:47.069Z,14.78
2023-03-26T07:44:51.229Z,14.91
2023-03-26T07:47:42.886Z,14.99
2023-03-26T07:50:30.567Z,14.93
2023-03-26T07:53:04.976Z,14.85
2023-03-26T07:55:53.002Z,15.12
2023-03-26T07:58:53.443Z,15.43
2023-03-26T08:02:03.986Z,15.61
2023-03-26T08:04:57.330Z,15.77
2023-03-26T08:08:08.056Z,16.17
2023-03-26T08:10:57.324Z,16.47
2023-03-26T08:13:34.858Z,16.75
2023-03-26T08:16:12.267Z,16.99
2023-03-26T08:18:51.833Z,17.12
2023-03-26T08:21:24.272Z,17.22
2023-03-26T08:24:02.478Z,17.31
2023-03-26T08:26:39.937Z,17.27
2023-03-26T08:29:25.373Z,17.38
2023-03-26T08:31:54.700Z,17.43
2023-03-26T08:34:23.713Z,17.61
2023-03-26T08:36:50.611Z,17.78
2023-03-26T08:39:19.297Z,18.13
2023-03-26T08:42:32.577Z,18.66
2023-03-26T08:45:31.859Z,18.55
2023-03-26T08:48:51.540Z,18.35
2023-03-26T08:51:53.000Z,17.99
2023-03-26T08:55:33.144Z,17.78
2023-03-26T08:59:14.276Z,17.61
2023-03-26T09:02:15.731Z,17.67
2023-03-26T09:05:20.035Z,18.16
2023-03-26T09:08:56.778Z,18.97
2023-03-26T09:12:00.655Z,19.41
2023-03-26T09:15:11.096Z,20.08
2023-03-26T09:18:28.627Z,20.27
2023-03-26T09:21:53.677Z,20.23
2023-03-26T09:24:57.109Z,20.47
2023-03-26T09:27:40.204Z,20.57
2023-03-26T09:30:51.389Z,20.14
2023-03-26T09:33:55.824Z,19.96
2023-03-26T09:36:57.830Z,20.27
2023-03-26T09:39:42.993Z,20.54
2023-03-26T09:42:23.671Z,20.94
2023-03-26T09:45:26.756Z,21.01
2023-03-26T09:48:45.886Z,20.94
2023-03-26T09:51:32.173Z,20.82
2023-03-26T09:54:42.656Z,20.96
2023-03-26T09:57:29.310Z,21.19
2023-03-26T10:00:26.482Z,21.38
2023-03-26T10:03:17.030Z,21.47
2023-03-26T10:06:13.859Z,21.94
2023-03-26T10:09:07.091Z,22.34
2023-03-26T10:12:04.680Z,22.55
2023-03-26T10:14:46.443Z,22.28
2023-03-26T10:17:42.998Z,22.03
2023-03-26T10:20:33.436Z,21.43
2023-03-26T10:23:41.576Z,21.49
2023-03-26T10:27:09.966Z,22.07
2023-03-26T10:30:24.623Z,22.42
2023-03-26T10:33:05.315Z,22.66
2023-03-26T10:35:48.587Z,22.86
2023-03-26T10:38:29.600Z,23.02
2023-03-26T10:41:08.739Z,23.26
2023-03-26T10:44:13.299Z,23.61
2023-03-26T10:47:05.585Z,23.46
2023-03-26T10:50:01.907Z,23.26
2023-03-26T10:52:37.635Z,23.10
2023-03-26T10:55:14.639Z,22.96
2023-03-26T10:57:48.850Z,22.77
2023-03-26T11:00:22.521Z,22.55
2023-03-26T11:03:21.878Z,22.34
2023-03-26T11:06:00.249Z,22.17
2023-03-26T11:08:39.447Z,22.40
2023-03-26T11:11:24.435Z,23.07
2023-03-26T11:14:03.544Z,23.94
2023-03-26T11:16:53.736Z,24.69
2023-03-26T11:19:32.798Z,24.91
2023-03-26T11:22:13.037Z,24.67
2023-03-26T11:25:24.017Z,24.07
2023-03-26T11:28:08.672Z,23.44
2023-03-26T11:30:46.821Z,23.43
2023-03-26T11:33:22.815Z,24.05
2023-03-26T11:35:58.077Z,24.30
2023-03-26T11:38:33.138Z,24.30
2023-03-26T11:41:04.476Z,24.08
2023-03-26T11:43:53.916Z,23.87
2023-03-26T11:46:24.941Z,23.68
2023-03-26T11:48:57.441Z,23.74
2023-03-26T11:51:31.891Z,23.89
2023-03-26T11:53:59.235Z,24.19
2023-03-26T11:56:33.466Z,24.62
2023-03-26T11:59:04.720Z,24.80
2023-03-26T12:01:46.985Z,24.94
2023-03-26T12:04:15.335Z,25.26
2023-03-26T12:06:53.763Z,25.42
2023-03-26T12:09:20.877Z,25.38
2023-03-26T12:11:53.630Z,25.23
2023-03-26T12:14:25.365Z,25.03
2023-03-26T12:17:03.143Z,24.86
2023-03-26T12:19:38.794Z,24.26
2023-03-26T12:22:29.757Z,23.64
2023-03-26T12:25:16.834Z,23.39
2023-03-26T12:27:47.257Z,23.30
2023-03-26T12:30:21.494Z,23.81
2023-03-26T12:32:53.336Z,24.48
2023-03-26T12:35:25.987Z,24.99
2023-03-26T12:37:56.478Z,25.02
2023-03-26T12:40:31.156Z,24.65
2023-03-26T12:44:47.005Z,24.19
2023-03-26T12:47:53.995Z,23.88
2023-03-26T12:48:41.483Z,24.04
2023-03-26T12:51:19.534Z,24.46
2023-03-26T12:54:29.244Z,25.13
2023-03-26T12:57:18.476Z,25.67
2023-03-26T13:00:02.082Z,26.18
2023-03-26T13:03:06.639Z,26.73
2023-03-26T13:06:07.341Z,26.90
2023-03-26T13:09:00.360Z,26.74
2023-03-26T13:11:42.744Z,26.80
2023-03-26T13:14:45.639Z,27.11
2023-03-26T13:17:26.037Z,27.10
2023-03-26T13:20:04.698Z,26.81
2023-03-26T13:22:43.294Z,26.63
2023-03-26T13:25:29.961Z,26.73
2023-03-26T13:28:17.955Z,26.92
2023-03-26T13:30:57.211Z,27.01
2023-03-26T13:33:39.865Z,26.95
2023-03-26T13:36:23.760Z,26.74
2023-03-26T13:42:27.511Z,26.43
2023-03-26T13:45:11.661Z,26.65
2023-03-26T13:47:46.155Z,26.73
2023-03-26T13:50:23.994Z,26.73
2023-03-26T13:52:58.577Z,26.69
2023-03-26T13:55:32.225Z,26.76
2023-03-26T13:58:12.281Z,26.91
2023-03-26T14:00:57.348Z,27.08
2023-03-26T14:03:33.175Z,27.07
2023-03-26T14:06:11.034Z,26.88
2023-03-26T14:08:43.309Z,26.84
2023-03-26T14:11:16.777Z,26.90
2023-03-26T14:13:52.561Z,26.83
2023-03-26T14:16:26.550Z,26.76
2023-03-26T14:19:04.147Z,26.59
2023-03-26T14:22:02.611Z,26.06
2023-03-26T14:24:57.481Z,25.48
2023-03-26T14:27:44.995Z,25.30
2023-03-26T14:30:47.116Z,25.35
2023-03-26T14:33:42.932Z,24.90
2023-03-26T14:36:34.301Z,24.52
2023-03-26T14:39:28.747Z,24.48
2023-03-26T14:42:03.019Z,24.62
2023-03-26T14:45:38.428Z,24.39
2023-03-26T14:48:47.810Z,24.01
2023-03-26T14:51:34.400Z,23.39
2023-03-26T14:54:08.647Z,23.09
2023-03-26T14:57:35.214Z,23.12
2023-03-26T15:00:49.609Z,23.06
2023-03-26T15:07:06.139Z,23.28
2023-03-26T15:10:11.340Z,23.37
2023-03-26T15:13:00.552Z,23.28
2023-03-26T15:16:26.163Z,23.13
2023-03-26T15:19:33.565Z,23.03
2023-03-26T15:22:54.107Z,22.93
2023-03-26T15:26:06.283Z,22.61
2023-03-26T15:29:03.562Z,22.38
2023-03-26T15:31:54.418Z,22.45
2023-03-26T15:35:11.010Z,22.79
2023-03-26T15:38:43.736Z,23.10
2023-03-26T15:41:21.634Z,23.31
2023-03-26T15:44:24.355Z,23.50
2023-03-26T15:47:03.131Z,23.71
2023-03-26T15:49:40.604Z,23.94
2023-03-26T15:52:23.889Z,24.09
2023-03-26T15:55:03.364Z,23.94
2023-03-26T15:57:37.255Z,23.74
2023-03-26T16:00:21.520Z,23.46
2023-03-26T16:03:14.288Z,23.31
2023-03-26T16:06:27.843Z,23.15
2023-03-26T16:09:25.793Z,22.91
2023-03-26T16:11:57.657Z,22.69
2023-03-26T16:14:43.449Z,22.76
2023-03-26T16:17:16.332Z,22.72
2023-03-26T16:19:58.856Z,22.83
2023-03-26T16:22:44.615Z,22.83
2023-03-26T16:25:29.102Z,22.79
2023-03-26T16:28:28.507Z,22.65
2023-03-26T16:31:36.769Z,22.48
2023-03-26T16:34:26.492Z,22.30
2023-03-26T16:36:54.198Z,22.07
2023-03-26T16:39:37.575Z,21.94
2023-03-26T16:42:33.099Z,21.69
2023-03-26T16:45:19.304Z,21.47
2023-03-26T16:47:58.990Z,21.31
2023-03-26T16:50:41.989Z,21.15
2023-03-26T16:53:25.140Z,21.06
2023-03-26T16:56:02.846Z,20.92
2023-03-26T16:58:37.141Z,20.80
2023-03-26T17:01:11.906Z,20.72
2023-03-26T17:03:55.452Z,20.63
2023-03-26T17:06:54.334Z,20.55
2023-03-26T17:09:32.198Z,20.39
2023-03-26T17:12:09.062Z,20.26
2023-03-26T17:14:54.513Z,20.08
2023-03-26T17:17:42.582Z,19.97
2023-03-26T17:20:27.510Z,19.82
2023-03-26T17:23:11.105Z,19.72
2023-03-26T17:25:55.247Z,19.66
2023-03-26T17:28:57.517Z,19.55
2023-03-26T17:31:37.181Z,19.41
2023-03-26T17:34:57.860Z,19.32
2023-03-26T17:37:46.851Z,19.21
2023-03-26T17:40:49.211Z,19.15
2023-03-26T17:43:44.284Z,19.04
2023-03-26T17:46:33.341Z,18.91
2023-03-26T17:49:08.237Z,18.80
2023-03-26T17:51:51.304Z,18.77
2023-03-26T17:54:26.912Z,18.68
2023-03-26T17:56:59.771Z,18.66
2023-03-26T17:59:28.595Z,18.60
2023-03-26T18:01:59.487Z,18.66
2023-03-26T18:04:33.880Z,18.66
2023-03-26T18:07:42.533Z,18.66
2023-03-26T18:10:29.702Z,18.52
2023-03-26T18:13:19.962Z,18.50
2023-03-26T18:16:00.820Z,18.49
2023-03-26T18:18:34.479Z,18.45
2023-03-26T18:21:06.205Z,18.40
2023-03-26T18:23:40.597Z,18.35
2023-03-26T18:26:15.469Z,18.29
2023-03-26T18:28:45.520Z,18.16
2023-03-26T18:31:19.212Z,18.15
2023-03-26T18:33:49.224Z,18.16
2023-03-26T18:36:18.276Z,18.19
2023-03-26T18:38:47.410Z,18.18
2023-03-26T18:41:25.349Z,18.25
2023-03-26T18:43:52.302Z,18.22
2023-03-26T18:46:19.985Z,18.24
2023-03-26T18:48:47.381Z,18.26
2023-03-26T18:51:14.456Z,18.21
2023-03-26T18:53:50.828Z,18.21
2023-03-26T18:56:29.901Z,18.18
2023-03-26T18:58:59.686Z,18.09
2023-03-26T19:01:29.427Z,18.09
2023-03-26T19:03:59.023Z,18.04
2023-03-26T19:06:26.607Z,17.92
2023-03-26T19:08:57.234Z,17.78
2023-03-26T19:11:25.772Z,17.63
2023-03-26T19:14:05.780Z,17.55
2023-03-26T19:16:35.028Z,17.50
2023-03-26T19:19:06.632Z,17.45
2023-03-26T19:21:36.106Z,17.37
2023-03-26T19:24:05.454Z,17.37
2023-03-26T19:26:32.963Z,17.40
2023-03-26T19:29:00.420Z,17.41
2023-03-26T19:31:34.467Z,17.41
2023-03-26T19:34:13.329Z,17.36
2023-03-26T19:36:52.595Z,17.31
2023-03-26T19:39:34.722Z,17.19
2023-03-26T19:42:10.983Z,16.97
2023-03-26T19:45:10.840Z,16.75
2023-03-26T19:50:21.769Z,16.56
2023-03-26T19:53:15.480Z,16.48
2023-03-26T19:55:56.428Z,16.36
2023-03-26T19:58:24.966Z,16.22
2023-03-26T20:00:52.387Z,16.14
2023-03-26T20:03:28.157Z,16.01
2023-03-26T20:05:55.583Z,15.86
2023-03-26T20:08:22.717Z,15.67
2023-03-26T20:10:49.671Z,15.52
2023-03-26T20:13:18.316Z,15.42
2023-03-26T20:16:05.392Z,15.29
2023-03-26T20:18:34.793Z,15.19
2023-03-26T20:21:01.777Z,15.16
2023-03-26T20:23:29.278Z,15.11
2023-03-26T20:25:56.623Z,15.13
2023-03-26T20:28:25.040Z,15.13
2023-03-26T20:30:52.019Z,15.11
2023-03-26T20:33:21.889Z,15.09
2023-03-26T20:35:48.878Z,15.03
2023-03-26T20:38:16.073Z,15.01
2023-03-26T20:40:44.138Z,14.91
2023-03-26T20:43:14.023Z,14.82
2023-03-26T20:45:42.612Z,14.77
2023-03-26T20:48:10.031Z,14.67
2023-03-26T20:50:49.982Z,14.56
2023-03-26T20:53:18.234Z,14.37
2023-03-26T20:55:47.440Z,14.26
2023-03-26T20:58:16.892Z,14.17
2023-03-26T21:00:45.330Z,14.14
2023-03-26T21:03:15.060Z,14.16
2023-03-26T21:05:43.311Z,14.14
2023-03-26T21:08:16.698Z,14.16
2023-03-26T21:10:45.924Z,14.12
2023-03-26T21:13:25.486Z,14.14
2023-03-26T21:16:01.408Z,14.05
2023-03-26T21:18:29.102Z,14.02
2023-03-26T21:21:18.148Z,14.03
2023-03-26T21:23:57.453Z,13.93
2023-03-26T21:26:33.419Z,13.91
2023-03-26T21:29:01.354Z,13.87
2023-03-26T21:31:31.076Z,13.82
2023-03-26T21:33:58.956Z,13.68
2023-03-26T21:36:27.018Z,13.62
2023-03-26T21:38:58.159Z,13.56
2023-03-26T21:41:35.298Z,13.52
2023-03-26T21:44:02.609Z,13.48
2023-03-26T21:46:33.226Z,13.52
2023-03-26T21:49:00.892Z,13.49
2023-03-26T21:51:30.100Z,13.49
2023-03-26T21:53:57.983Z,13.52
2023-03-26T21:56:45.482Z,13.63
2023-03-26T21:59:23.793Z,13.56
2023-03-26T22:02:05.712Z,13.55
2023-03-26T22:04:41.498Z,13.45
2023-03-26T22:07:13.747Z,13.37
2023-03-26T22:09:41.143Z,13.25
2023-03-26T22:12:08.003Z,13.22
2023-03-26T22:14:35.426Z,13.21
2023-03-26T22:17:04.685Z,13.19
2023-03-26T22:19:32.078Z,13.14
2023-03-26T22:21:59.673Z,13.05
2023-03-26T22:24:26.878Z,13.03
2023-03-26T22:26:54.085Z,13.00
2023-03-26T22:29:21.266Z,13.01
2023-03-26T22:31:48.418Z,13.01
2023-03-26T22:34:16.823Z,12.97
2023-03-26T22:36:43.828Z,12.95
2023-03-26T22:39:10.876Z,12.91
2023-03-26T22:41:38.011Z,12.93
2023-03-26T22:44:16.661Z,12.83
2023-03-26T22:46:46.874Z,12.81
2023-03-26T22:49:13.743Z,12.80
2023-03-26T22:51:42.247Z,12.84
2023-03-26T22:54:09.285Z,12.84
2023-03-26T22:56:36.530Z,12.83
2023-03-26T22:59:03.621Z,12.86
2023-03-26T23:01:31.074Z,12.86
2023-03-26T23:03:58.164Z,12.80
2023-03-26T23:06:25.327Z,12.81
2023-03-26T23:08:53.857Z,12.80
2023-03-26T23:11:21.912Z,12.76
2023-03-26T23:13:49.565Z,12.72
2023-03-26T23:16:17.660Z,12.70
2023-03-26T23:18:45.063Z,12.66
2023-03-26T23:21:14.399Z,12.63
2023-03-26T23:23:41.796Z,12.60
2023-03-26T23:26:10.743Z,12.56
2023-03-26T23:28:38.404Z,12.50
2023-03-26T23:31:09.469Z,12.47
2023-03-26T23:33:39.580Z,12.46
2023-03-26T23:36:08.632Z,12.45
2023-03-26T23:38:43.604Z,12.45
2023-03-26T23:41:13.932Z,12.45
2023-03-26T23:43:53.784Z,12.45
2023-03-26T23:46:24.694Z,12.45
2023-03-26T23:48:52.614Z,12.49
2023-03-26T23:51:20.702Z,12.54
2023-03-26T23:53:49.325Z,12.56
2023-03-26T23:56:17.987Z,12.53
2023-03-26T23:58:45.149Z,12.52
